sensor_id;sensor_type;location;lat;lon;timestamp;P1;durP1;ratioP1;P2;durP2;ratioP2
1174;SDS011;576;48.418;10.074;2023-07-31T00:01:18;0.70;;;0.70;;
1174;SDS011;576;48.418;10.074;2023-07-31T00:03:46;0.60;;;0.60;;
1174;SDS011;576;48.418;10.074;2023-07-31T00:06:15;0.57;;;0.57;;
1174;SDS011;576;48.418;10.074;2023-07-31T00:08:43;0.70;;;0.70;;
1174;SDS011;576;48.418;10.074;2023-07-31T00:11:11;1.13;;;0.70;;
1174;SDS011;576;48.418;10.074;2023-07-31T00:13:39;0.70;;;0.70;;
1174;SDS011;576;48.418;10.074;2023-07-31T00:16:07;1.00;;;0.77;;
1174;SDS011;576;48.418;10.074;2023-07-31T00:18:37;0.63;;;0.63;;
1174;SDS011;576;48.418;10.074;2023-07-31T00:21:05;0.70;;;0.60;;
1174;SDS011;576;48.418;10.074;2023-07-31T00:23:33;0.70;;;0.60;;
1174;SDS011;576;48.418;10.074;2023-07-31T00:26:01;0.80;;;0.80;;
1174;SDS011;576;48.418;10.074;2023-07-31T00:28:30;0.60;;;0.60;;
1174;SDS011;576;48.418;10.074;2023-07-31T00:30:59;0.70;;;0.70;;
1174;SDS011;576;48.418;10.074;2023-07-31T00:33:28;0.80;;;0.80;;
1174;SDS011;576;48.418;10.074;2023-07-31T00:35:58;0.70;;;0.70;;
1174;SDS011;576;48.418;10.074;2023-07-31T00:38:27;0.70;;;0.70;;
1174;SDS011;576;48.418;10.074;2023-07-31T00:40:55;0.70;;;0.70;;
1174;SDS011;576;48.418;10.074;2023-07-31T00:43:24;0.77;;;0.77;;
1174;SDS011;576;48.418;10.074;2023-07-31T00:45:52;0.60;;;0.60;;
1174;SDS011;576;48.418;10.074;2023-07-31T00:48:20;0.83;;;0.73;;
1174;SDS011;576;48.418;10.074;2023-07-31T00:50:49;0.93;;;0.90;;
1174;SDS011;576;48.418;10.074;2023-07-31T00:53:19;0.50;;;0.50;;
1174;SDS011;576;48.418;10.074;2023-07-31T00:55:49;0.67;;;0.67;;
1174;SDS011;576;48.418;10.074;2023-07-31T00:58:17;0.70;;;0.67;;
1174;SDS011;576;48.418;10.074;2023-07-31T01:00:45;0.63;;;0.63;;
1174;SDS011;576;48.418;10.074;2023-07-31T01:03:14;0.70;;;0.70;;
1174;SDS011;576;48.418;10.074;2023-07-31T01:05:43;0.60;;;0.60;;
1174;SDS011;576;48.418;10.074;2023-07-31T01:08:18;0.60;;;0.60;;
1174;SDS011;576;48.418;10.074;2023-07-31T01:10:54;0.67;;;0.67;;
1174;SDS011;576;48.418;10.074;2023-07-31T01:13:28;1.00;;;0.90;;
1174;SDS011;576;48.418;10.074;2023-07-31T01:15:56;0.80;;;0.80;;
1174;SDS011;576;48.418;10.074;2023-07-31T01:18:26;0.77;;;0.77;;
1174;SDS011;576;48.418;10.074;2023-07-31T01:20:54;0.77;;;0.77;;
1174;SDS011;576;48.418;10.074;2023-07-31T01:26:36;1.10;;;1.00;;
1174;SDS011;576;48.418;10.074;2023-07-31T01:29:10;0.60;;;0.60;;
1174;SDS011;576;48.418;10.074;2023-07-31T01:31:41;0.90;;;0.90;;
1174;SDS011;576;48.418;10.074;2023-07-31T01:34:13;0.63;;;0.63;;
1174;SDS011;576;48.418;10.074;2023-07-31T01:36:45;0.90;;;0.90;;
1174;SDS011;576;48.418;10.074;2023-07-31T01:39:13;0.90;;;0.87;;
1174;SDS011;576;48.418;10.074;2023-07-31T01:41:43;0.60;;;0.60;;
1174;SDS011;576;48.418;10.074;2023-07-31T01:44:11;0.50;;;0.50;;
1174;SDS011;576;48.418;10.074;2023-07-31T01:46:40;0.63;;;0.63;;
1174;SDS011;576;48.418;10.074;2023-07-31T01:49:09;0.60;;;0.60;;
1174;SDS011;576;48.418;10.074;2023-07-31T01:51:37;0.67;;;0.67;;
1174;SDS011;576;48.418;10.074;2023-07-31T01:54:06;0.57;;;0.53;;
1174;SDS011;576;48.418;10.074;2023-07-31T01:56:35;0.80;;;0.80;;
1174;SDS011;576;48.418;10.074;2023-07-31T01:59:05;0.87;;;0.80;;
1174;SDS011;576;48.418;10.074;2023-07-31T02:01:33;0.70;;;0.70;;
1174;SDS011;576;48.418;10.074;2023-07-31T02:04:01;1.27;;;0.80;;
1174;SDS011;576;48.418;10.074;2023-07-31T02:06:31;0.70;;;0.70;;
1174;SDS011;576;48.418;10.074;2023-07-31T02:08:59;0.60;;;0.60;;
1174;SDS011;576;48.418;10.074;2023-07-31T02:11:30;0.63;;;0.63;;
1174;SDS011;576;48.418;10.074;2023-07-31T02:13:58;0.70;;;0.70;;
1174;SDS011;576;48.418;10.074;2023-07-31T02:16:28;0.73;;;0.73;;
1174;SDS011;576;48.418;10.074;2023-07-31T02:18:56;0.60;;;0.60;;
1174;SDS011;576;48.418;10.074;2023-07-31T02:21:25;0.67;;;0.67;;
1174;SDS011;576;48.418;10.074;2023-07-31T02:23:53;0.70;;;0.70;;
1174;SDS011;576;48.418;10.074;2023-07-31T02:26:21;0.63;;;0.63;;
1174;SDS011;576;48.418;10.074;2023-07-31T02:28:49;1.00;;;0.90;;
1174;SDS011;576;48.418;10.074;2023-07-31T02:31:18;1.03;;;0.90;;
1174;SDS011;576;48.418;10.074;2023-07-31T02:33:50;0.70;;;0.70;;
1174;SDS011;576;48.418;10.074;2023-07-31T02:36:18;0.53;;;0.53;;
1174;SDS011;576;48.418;10.074;2023-07-31T02:38:46;1.03;;;1.03;;
1174;SDS011;576;48.418;10.074;2023-07-31T02:41:14;0.70;;;0.70;;
1174;SDS011;576;48.418;10.074;2023-07-31T02:43:42;0.63;;;0.63;;
1174;SDS011;576;48.418;10.074;2023-07-31T02:46:10;0.70;;;0.70;;
1174;SDS011;576;48.418;10.074;2023-07-31T02:48:40;0.77;;;0.77;;
1174;SDS011;576;48.418;10.074;2023-07-31T02:51:09;0.70;;;0.70;;
1174;SDS011;576;48.418;10.074;2023-07-31T02:53:38;0.60;;;0.60;;
1174;SDS011;576;48.418;10.074;2023-07-31T02:56:06;0.60;;;0.60;;
1174;SDS011;576;48.418;10.074;2023-07-31T02:58:34;0.57;;;0.57;;
1174;SDS011;576;48.418;10.074;2023-07-31T03:01:02;0.90;;;0.87;;
1174;SDS011;576;48.418;10.074;2023-07-31T03:03:30;0.53;;;0.53;;
1174;SDS011;576;48.418;10.074;2023-07-31T03:05:59;0.63;;;0.63;;
1174;SDS011;576;48.418;10.074;2023-07-31T03:08:28;0.60;;;0.60;;
1174;SDS011;576;48.418;10.074;2023-07-31T03:10:56;0.70;;;0.70;;
1174;SDS011;576;48.418;10.074;2023-07-31T03:13:26;0.60;;;0.60;;
1174;SDS011;576;48.418;10.074;2023-07-31T03:15:55;0.80;;;0.80;;
1174;SDS011;576;48.418;10.074;2023-07-31T03:18:23;0.70;;;0.63;;
1174;SDS011;576;48.418;10.074;2023-07-31T03:20:51;0.73;;;0.73;;
1174;SDS011;576;48.418;10.074;2023-07-31T03:23:19;1.37;;;1.27;;
1174;SDS011;576;48.418;10.074;2023-07-31T03:25:58;1.23;;;0.73;;
1174;SDS011;576;48.418;10.074;2023-07-31T03:28:27;0.80;;;0.80;;
1174;SDS011;576;48.418;10.074;2023-07-31T03:30:56;0.83;;;0.60;;
1174;SDS011;576;48.418;10.074;2023-07-31T03:33:24;1.00;;;0.70;;
1174;SDS011;576;48.418;10.074;2023-07-31T03:35:52;0.80;;;0.80;;
1174;SDS011;576;48.418;10.074;2023-07-31T03:38:21;0.60;;;0.60;;
1174;SDS011;576;48.418;10.074;2023-07-31T03:40:49;0.60;;;0.60;;
1174;SDS011;576;48.418;10.074;2023-07-31T03:43:18;0.73;;;0.73;;
1174;SDS011;576;48.418;10.074;2023-07-31T03:45:47;0.63;;;0.63;;
1174;SDS011;576;48.418;10.074;2023-07-31T03:48:15;0.63;;;0.63;;
1174;SDS011;576;48.418;10.074;2023-07-31T03:50:43;1.07;;;1.00;;
1174;SDS011;576;48.418;10.074;2023-07-31T03:53:11;0.80;;;0.80;;
1174;SDS011;576;48.418;10.074;2023-07-31T03:55:40;0.80;;;0.70;;
1174;SDS011;576;48.418;10.074;2023-07-31T03:58:08;0.80;;;0.80;;
1174;SDS011;576;48.418;10.074;2023-07-31T04:00:37;0.60;;;0.60;;
1174;SDS011;576;48.418;10.074;2023-07-31T04:03:07;0.70;;;0.70;;
1174;SDS011;576;48.418;10.074;2023-07-31T04:05:37;0.93;;;0.83;;
1174;SDS011;576;48.418;10.074;2023-07-31T04:08:06;0.70;;;0.70;;
1174;SDS011;576;48.418;10.074;2023-07-31T04:10:34;0.60;;;0.60;;
1174;SDS011;576;48.418;10.074;2023-07-31T04:13:02;0.63;;;0.63;;
1174;SDS011;576;48.418;10.074;2023-07-31T04:15:30;0.63;;;0.63;;
1174;SDS011;576;48.418;10.074;2023-07-31T04:18:00;0.87;;;0.70;;
1174;SDS011;576;48.418;10.074;2023-07-31T04:20:28;0.70;;;0.70;;
1174;SDS011;576;48.418;10.074;2023-07-31T04:22:56;0.80;;;0.80;;
1174;SDS011;576;48.418;10.074;2023-07-31T04:25:25;0.50;;;0.50;;
1174;SDS011;576;48.418;10.074;2023-07-31T04:27:53;0.70;;;0.70;;
1174;SDS011;576;48.418;10.074;2023-07-31T04:30:21;0.77;;;0.77;;
1174;SDS011;576;48.418;10.074;2023-07-31T04:32:49;0.70;;;0.70;;
1174;SDS011;576;48.418;10.074;2023-07-31T04:35:19;0.80;;;0.80;;
1174;SDS011;576;48.418;10.074;2023-07-31T04:37:47;0.70;;;0.70;;
1174;SDS011;576;48.418;10.074;2023-07-31T04:40:15;0.70;;;0.70;;
1174;SDS011;576;48.418;10.074;2023-07-31T04:42:44;0.90;;;0.90;;
1174;SDS011;576;48.418;10.074;2023-07-31T04:45:14;0.70;;;0.70;;
1174;SDS011;576;48.418;10.074;2023-07-31T04:47:42;0.90;;;0.70;;
1174;SDS011;576;48.418;10.074;2023-07-31T04:50:11;0.80;;;0.57;;
1174;SDS011;576;48.418;10.074;2023-07-31T04:52:40;0.90;;;0.90;;
1174;SDS011;576;48.418;10.074;2023-07-31T04:55:08;0.60;;;0.50;;
1174;SDS011;576;48.418;10.074;2023-07-31T04:57:36;0.60;;;0.60;;
1174;SDS011;576;48.418;10.074;2023-07-31T05:00:05;0.70;;;0.70;;
1174;SDS011;576;48.418;10.074;2023-07-31T05:02:34;0.70;;;0.70;;
1174;SDS011;576;48.418;10.074;2023-07-31T05:05:03;0.60;;;0.60;;
1174;SDS011;576;48.418;10.074;2023-07-31T05:07:31;0.80;;;0.80;;
1174;SDS011;576;48.418;10.074;2023-07-31T05:10:01;0.73;;;0.73;;
1174;SDS011;576;48.418;10.074;2023-07-31T05:12:29;0.70;;;0.70;;
1174;SDS011;576;48.418;10.074;2023-07-31T05:14:57;0.80;;;0.80;;
1174;SDS011;576;48.418;10.074;2023-07-31T05:17:25;0.80;;;0.80;;
1174;SDS011;576;48.418;10.074;2023-07-31T05:19:54;0.73;;;0.73;;
1174;SDS011;576;48.418;10.074;2023-07-31T05:22:22;0.80;;;0.80;;
1174;SDS011;576;48.418;10.074;2023-07-31T05:24:50;0.50;;;0.50;;
1174;SDS011;576;48.418;10.074;2023-07-31T05:27:21;1.00;;;0.60;;
1174;SDS011;576;48.418;10.074;2023-07-31T05:29:50;0.77;;;0.77;;
1174;SDS011;576;48.418;10.074;2023-07-31T05:32:18;0.70;;;0.70;;
1174;SDS011;576;48.418;10.074;2023-07-31T05:34:46;0.90;;;0.90;;
1174;SDS011;576;48.418;10.074;2023-07-31T05:37:14;0.90;;;0.90;;
1174;SDS011;576;48.418;10.074;2023-07-31T05:39:42;1.27;;;0.90;;
1174;SDS011;576;48.418;10.074;2023-07-31T05:42:11;1.20;;;1.10;;
1174;SDS011;576;48.418;10.074;2023-07-31T05:44:40;1.00;;;1.00;;
1174;SDS011;576;48.418;10.074;2023-07-31T05:47:08;0.60;;;0.60;;
1174;SDS011;576;48.418;10.074;2023-07-31T05:49:37;0.57;;;0.57;;
1174;SDS011;576;48.418;10.074;2023-07-31T05:52:05;1.60;;;0.90;;
1174;SDS011;576;48.418;10.074;2023-07-31T05:54:34;0.80;;;0.70;;
1174;SDS011;576;48.418;10.074;2023-07-31T05:57:03;1.07;;;0.87;;
1174;SDS011;576;48.418;10.074;2023-07-31T05:59:31;0.70;;;0.70;;
1174;SDS011;576;48.418;10.074;2023-07-31T06:02:01;0.70;;;0.70;;
1174;SDS011;576;48.418;10.074;2023-07-31T06:04:29;1.10;;;1.00;;
1174;SDS011;576;48.418;10.074;2023-07-31T06:06:57;0.93;;;0.90;;
1174;SDS011;576;48.418;10.074;2023-07-31T06:09:25;1.03;;;0.90;;
1174;SDS011;576;48.418;10.074;2023-07-31T06:11:54;0.67;;;0.67;;
1174;SDS011;576;48.418;10.074;2023-07-31T06:14:22;0.60;;;0.60;;
1174;SDS011;576;48.418;10.074;2023-07-31T06:16:50;0.70;;;0.70;;
1174;SDS011;576;48.418;10.074;2023-07-31T06:19:20;1.00;;;1.00;;
1174;SDS011;576;48.418;10.074;2023-07-31T06:21:48;1.00;;;0.93;;
1174;SDS011;576;48.418;10.074;2023-07-31T06:24:17;0.70;;;0.70;;
1174;SDS011;576;48.418;10.074;2023-07-31T06:26:47;1.07;;;0.73;;
1174;SDS011;576;48.418;10.074;2023-07-31T06:29:15;0.80;;;0.80;;
1174;SDS011;576;48.418;10.074;2023-07-31T06:31:43;0.70;;;0.70;;
1174;SDS011;576;48.418;10.074;2023-07-31T06:34:12;0.60;;;0.60;;
1174;SDS011;576;48.418;10.074;2023-07-31T06:36:44;1.00;;;0.90;;
1174;SDS011;576;48.418;10.074;2023-07-31T06:39:12;0.93;;;0.80;;
1174;SDS011;576;48.418;10.074;2023-07-31T06:41:41;1.03;;;1.00;;
1174;SDS011;576;48.418;10.074;2023-07-31T06:44:10;1.30;;;1.20;;
1174;SDS011;576;48.418;10.074;2023-07-31T06:46:38;4.03;;;1.40;;
1174;SDS011;576;48.418;10.074;2023-07-31T06:49:07;2.90;;;1.77;;
1174;SDS011;576;48.418;10.074;2023-07-31T06:51:35;2.23;;;2.07;;
1174;SDS011;576;48.418;10.074;2023-07-31T06:54:06;2.37;;;1.70;;
1174;SDS011;576;48.418;10.074;2023-07-31T06:56:35;3.03;;;2.40;;
1174;SDS011;576;48.418;10.074;2023-07-31T06:59:06;2.60;;;2.13;;
1174;SDS011;576;48.418;10.074;2023-07-31T07:01:34;2.70;;;2.10;;
1174;SDS011;576;48.418;10.074;2023-07-31T07:04:03;2.30;;;1.97;;
1174;SDS011;576;48.418;10.074;2023-07-31T07:06:31;2.43;;;2.23;;
1174;SDS011;576;48.418;10.074;2023-07-31T07:08:59;2.03;;;1.80;;
1174;SDS011;576;48.418;10.074;2023-07-31T07:11:32;6.07;;;2.27;;
1174;SDS011;576;48.418;10.074;2023-07-31T07:14:00;2.37;;;2.17;;
1174;SDS011;576;48.418;10.074;2023-07-31T07:16:28;2.67;;;2.47;;
1174;SDS011;576;48.418;10.074;2023-07-31T07:18:57;2.53;;;2.30;;
1174;SDS011;576;48.418;10.074;2023-07-31T07:21:30;1.70;;;1.60;;
1174;SDS011;576;48.418;10.074;2023-07-31T07:23:58;4.20;;;2.10;;
1174;SDS011;576;48.418;10.074;2023-07-31T07:26:26;2.60;;;2.37;;
1174;SDS011;576;48.418;10.074;2023-07-31T07:28:56;2.80;;;2.27;;
1174;SDS011;576;48.418;10.074;2023-07-31T07:31:27;2.60;;;2.40;;
1174;SDS011;576;48.418;10.074;2023-07-31T07:33:55;3.20;;;2.10;;
1174;SDS011;576;48.418;10.074;2023-07-31T07:36:23;3.80;;;2.07;;
1174;SDS011;576;48.418;10.074;2023-07-31T07:38:52;3.20;;;2.30;;
1174;SDS011;576;48.418;10.074;2023-07-31T07:41:20;2.30;;;1.80;;
1174;SDS011;576;48.418;10.074;2023-07-31T07:43:48;2.27;;;2.07;;
1174;SDS011;576;48.418;10.074;2023-07-31T07:46:19;2.20;;;2.10;;
1174;SDS011;576;48.418;10.074;2023-07-31T07:48:47;2.57;;;2.20;;
1174;SDS011;576;48.418;10.074;2023-07-31T07:51:15;2.80;;;1.97;;
1174;SDS011;576;48.418;10.074;2023-07-31T07:53:43;3.00;;;2.17;;
1174;SDS011;576;48.418;10.074;2023-07-31T07:56:12;2.53;;;1.90;;
1174;SDS011;576;48.418;10.074;2023-07-31T07:58:40;2.90;;;1.97;;
1174;SDS011;576;48.418;10.074;2023-07-31T08:01:11;1.93;;;1.83;;
1174;SDS011;576;48.418;10.074;2023-07-31T08:03:40;1.80;;;1.60;;
1174;SDS011;576;48.418;10.074;2023-07-31T08:06:09;2.40;;;2.20;;
1174;SDS011;576;48.418;10.074;2023-07-31T08:08:37;1.63;;;1.53;;
1174;SDS011;576;48.418;10.074;2023-07-31T08:11:06;2.00;;;1.53;;
1174;SDS011;576;48.418;10.074;2023-07-31T08:13:34;3.37;;;2.37;;
1174;SDS011;576;48.418;10.074;2023-07-31T08:16:03;3.20;;;2.30;;
1174;SDS011;576;48.418;10.074;2023-07-31T08:18:31;4.10;;;2.33;;
1174;SDS011;576;48.418;10.074;2023-07-31T08:21:02;1.90;;;1.80;;
1174;SDS011;576;48.418;10.074;2023-07-31T08:23:30;2.63;;;2.37;;
1174;SDS011;576;48.418;10.074;2023-07-31T08:25:59;2.90;;;2.17;;
1174;SDS011;576;48.418;10.074;2023-07-31T08:28:27;4.90;;;3.17;;
1174;SDS011;576;48.418;10.074;2023-07-31T08:30:55;5.40;;;1.93;;
1174;SDS011;576;48.418;10.074;2023-07-31T08:33:23;2.20;;;2.00;;
1174;SDS011;576;48.418;10.074;2023-07-31T08:35:52;2.20;;;2.00;;
1174;SDS011;576;48.418;10.074;2023-07-31T08:38:21;3.23;;;2.37;;
1174;SDS011;576;48.418;10.074;2023-07-31T08:40:51;4.20;;;3.00;;
1174;SDS011;576;48.418;10.074;2023-07-31T08:43:20;2.30;;;2.10;;
1174;SDS011;576;48.418;10.074;2023-07-31T08:45:52;2.20;;;1.70;;
1174;SDS011;576;48.418;10.074;2023-07-31T08:48:23;1.50;;;1.40;;
1174;SDS011;576;48.418;10.074;2023-07-31T08:50:51;3.67;;;2.10;;
1174;SDS011;576;48.418;10.074;2023-07-31T08:53:22;2.53;;;2.10;;
1174;SDS011;576;48.418;10.074;2023-07-31T08:55:51;2.17;;;1.93;;
1174;SDS011;576;48.418;10.074;2023-07-31T08:58:20;4.43;;;2.00;;
1174;SDS011;576;48.418;10.074;2023-07-31T09:00:49;1.93;;;1.83;;
1174;SDS011;576;48.418;10.074;2023-07-31T09:03:20;2.43;;;1.97;;
1174;SDS011;576;48.418;10.074;2023-07-31T09:05:51;2.23;;;2.03;;
1174;SDS011;576;48.418;10.074;2023-07-31T09:08:24;4.17;;;1.57;;
1174;SDS011;576;48.418;10.074;2023-07-31T09:10:58;3.67;;;2.57;;
1174;SDS011;576;48.418;10.074;2023-07-31T09:13:27;2.20;;;1.47;;
1174;SDS011;576;48.418;10.074;2023-07-31T09:15:56;2.83;;;1.80;;
1174;SDS011;576;48.418;10.074;2023-07-31T09:18:25;2.50;;;2.30;;
1174;SDS011;576;48.418;10.074;2023-07-31T09:21:00;2.50;;;1.90;;
1174;SDS011;576;48.418;10.074;2023-07-31T09:23:44;2.97;;;2.17;;
1174;SDS011;576;48.418;10.074;2023-07-31T09:26:28;2.27;;;2.07;;
1174;SDS011;576;48.418;10.074;2023-07-31T09:28:57;2.50;;;2.00;;
1174;SDS011;576;48.418;10.074;2023-07-31T09:31:31;2.77;;;2.00;;
1174;SDS011;576;48.418;10.074;2023-07-31T09:34:01;1.80;;;1.70;;
1174;SDS011;576;48.418;10.074;2023-07-31T09:36:29;2.40;;;2.20;;
1174;SDS011;576;48.418;10.074;2023-07-31T09:39:02;2.00;;;1.80;;
1174;SDS011;576;48.418;10.074;2023-07-31T09:41:31;3.90;;;2.17;;
1174;SDS011;576;48.418;10.074;2023-07-31T09:44:03;3.20;;;1.90;;
1174;SDS011;576;48.418;10.074;2023-07-31T09:46:32;4.30;;;2.10;;
1174;SDS011;576;48.418;10.074;2023-07-31T09:49:07;2.90;;;2.23;;
1174;SDS011;576;48.418;10.074;2023-07-31T09:51:36;2.30;;;2.03;;
1174;SDS011;576;48.418;10.074;2023-07-31T09:54:10;1.80;;;1.70;;
1174;SDS011;576;48.418;10.074;2023-07-31T09:56:41;1.83;;;1.73;;
1174;SDS011;576;48.418;10.074;2023-07-31T09:59:12;1.97;;;1.87;;
1174;SDS011;576;48.418;10.074;2023-07-31T10:01:41;2.50;;;1.90;;
1174;SDS011;576;48.418;10.074;2023-07-31T10:04:11;2.90;;;2.63;;
1174;SDS011;576;48.418;10.074;2023-07-31T10:06:42;2.63;;;2.17;;
1174;SDS011;576;48.418;10.074;2023-07-31T10:09:14;2.13;;;1.80;;
1174;SDS011;576;48.418;10.074;2023-07-31T10:11:46;2.43;;;2.23;;
1174;SDS011;576;48.418;10.074;2023-07-31T10:14:22;2.30;;;2.10;;
1174;SDS011;576;48.418;10.074;2023-07-31T10:16:52;1.80;;;1.70;;
1174;SDS011;576;48.418;10.074;2023-07-31T10:19:21;2.97;;;2.20;;
1174;SDS011;576;48.418;10.074;2023-07-31T10:21:50;4.10;;;2.07;;
1174;SDS011;576;48.418;10.074;2023-07-31T10:24:21;2.43;;;1.90;;
1174;SDS011;576;48.418;10.074;2023-07-31T10:26:51;2.90;;;2.03;;
1174;SDS011;576;48.418;10.074;2023-07-31T10:29:20;2.10;;;1.87;;
1174;SDS011;576;48.418;10.074;2023-07-31T10:31:50;1.60;;;1.50;;
1174;SDS011;576;48.418;10.074;2023-07-31T10:34:19;3.30;;;2.33;;
1174;SDS011;576;48.418;10.074;2023-07-31T10:36:48;2.27;;;1.90;;
1174;SDS011;576;48.418;10.074;2023-07-31T10:39:36;4.50;;;2.33;;
1174;SDS011;576;48.418;10.074;2023-07-31T10:42:09;2.37;;;2.10;;
1174;SDS011;576;48.418;10.074;2023-07-31T10:44:43;5.10;;;2.00;;
1174;SDS011;576;48.418;10.074;2023-07-31T10:47:14;2.63;;;2.40;;
1174;SDS011;576;48.418;10.074;2023-07-31T10:49:44;4.30;;;2.63;;
1174;SDS011;576;48.418;10.074;2023-07-31T10:52:16;3.73;;;2.47;;
1174;SDS011;576;48.418;10.074;2023-07-31T10:57:49;1.97;;;1.87;;
1174;SDS011;576;48.418;10.074;2023-07-31T11:00:20;6.70;;;2.30;;
1174;SDS011;576;48.418;10.074;2023-07-31T11:03:00;5.10;;;2.50;;
1174;SDS011;576;48.418;10.074;2023-07-31T11:08:30;5.90;;;3.00;;
1174;SDS011;576;48.418;10.074;2023-07-31T11:11:07;4.20;;;2.47;;
1174;SDS011;576;48.418;10.074;2023-07-31T11:13:39;5.23;;;2.70;;
1174;SDS011;576;48.418;10.074;2023-07-31T11:16:09;5.23;;;2.50;;
1174;SDS011;576;48.418;10.074;2023-07-31T11:18:38;2.97;;;2.13;;
1174;SDS011;576;48.418;10.074;2023-07-31T11:21:08;4.87;;;2.30;;
1174;SDS011;576;48.418;10.074;2023-07-31T11:23:39;5.00;;;2.30;;
1174;SDS011;576;48.418;10.074;2023-07-31T11:26:09;2.30;;;2.10;;
1174;SDS011;576;48.418;10.074;2023-07-31T11:28:39;2.80;;;2.60;;
1174;SDS011;576;48.418;10.074;2023-07-31T11:31:09;4.50;;;2.30;;
1174;SDS011;576;48.418;10.074;2023-07-31T11:33:38;2.00;;;1.87;;
1174;SDS011;576;48.418;10.074;2023-07-31T11:36:06;2.90;;;2.10;;
1174;SDS011;576;48.418;10.074;2023-07-31T11:38:41;2.40;;;2.20;;
1174;SDS011;576;48.418;10.074;2023-07-31T11:41:13;2.03;;;1.83;;
1174;SDS011;576;48.418;10.074;2023-07-31T11:43:42;2.93;;;2.37;;
1174;SDS011;576;48.418;10.074;2023-07-31T11:46:10;6.27;;;2.00;;
1174;SDS011;576;48.418;10.074;2023-07-31T11:48:39;2.73;;;2.53;;
1174;SDS011;576;48.418;10.074;2023-07-31T11:51:08;4.83;;;2.37;;
1174;SDS011;576;48.418;10.074;2023-07-31T11:53:41;2.80;;;2.50;;
1174;SDS011;576;48.418;10.074;2023-07-31T11:56:12;2.13;;;1.93;;
1174;SDS011;576;48.418;10.074;2023-07-31T11:58:43;3.23;;;2.57;;
1174;SDS011;576;48.418;10.074;2023-07-31T12:01:14;2.53;;;2.30;;
1174;SDS011;576;48.418;10.074;2023-07-31T12:03:44;2.17;;;2.07;;
1174;SDS011;576;48.418;10.074;2023-07-31T12:06:13;4.27;;;2.00;;
1174;SDS011;576;48.418;10.074;2023-07-31T12:08:41;3.90;;;2.30;;
1174;SDS011;576;48.418;10.074;2023-07-31T12:11:09;5.50;;;2.70;;
1174;SDS011;576;48.418;10.074;2023-07-31T12:13:39;3.07;;;2.60;;
1174;SDS011;576;48.418;10.074;2023-07-31T12:16:08;2.70;;;2.03;;
1174;SDS011;576;48.418;10.074;2023-07-31T12:18:36;3.93;;;2.10;;
1174;SDS011;576;48.418;10.074;2023-07-31T12:21:06;3.80;;;2.00;;
1174;SDS011;576;48.418;10.074;2023-07-31T12:23:37;3.33;;;2.20;;
1174;SDS011;576;48.418;10.074;2023-07-31T12:26:08;1.93;;;1.80;;
1174;SDS011;576;48.418;10.074;2023-07-31T12:28:40;2.20;;;2.10;;
1174;SDS011;576;48.418;10.074;2023-07-31T12:31:09;2.20;;;1.87;;
1174;SDS011;576;48.418;10.074;2023-07-31T12:33:40;2.30;;;2.10;;
1174;SDS011;576;48.418;10.074;2023-07-31T12:36:10;2.57;;;2.37;;
1174;SDS011;576;48.418;10.074;2023-07-31T12:38:39;2.83;;;2.63;;
1174;SDS011;576;48.418;10.074;2023-07-31T12:41:08;3.37;;;3.07;;
1174;SDS011;576;48.418;10.074;2023-07-31T12:43:36;3.20;;;2.90;;
1174;SDS011;576;48.418;10.074;2023-07-31T12:46:07;2.97;;;2.57;;
1174;SDS011;576;48.418;10.074;2023-07-31T12:48:36;2.97;;;2.70;;
1174;SDS011;576;48.418;10.074;2023-07-31T12:51:05;3.30;;;3.10;;
1174;SDS011;576;48.418;10.074;2023-07-31T12:53:34;3.13;;;2.90;;
1174;SDS011;576;48.418;10.074;2023-07-31T12:56:03;3.60;;;3.30;;
1174;SDS011;576;48.418;10.074;2023-07-31T12:58:31;5.87;;;3.40;;
1174;SDS011;576;48.418;10.074;2023-07-31T13:00:59;3.97;;;2.83;;
1174;SDS011;576;48.418;10.074;2023-07-31T13:03:30;3.93;;;2.77;;
1174;SDS011;576;48.418;10.074;2023-07-31T13:05:58;4.23;;;2.83;;
1174;SDS011;576;48.418;10.074;2023-07-31T13:08:26;2.87;;;2.57;;
1174;SDS011;576;48.418;10.074;2023-07-31T13:10:54;2.70;;;2.50;;
1174;SDS011;576;48.418;10.074;2023-07-31T13:13:23;1.63;;;1.53;;
1174;SDS011;576;48.418;10.074;2023-07-31T13:15:51;3.43;;;3.03;;
1174;SDS011;576;48.418;10.074;2023-07-31T13:18:19;2.87;;;2.50;;
1174;SDS011;576;48.418;10.074;2023-07-31T13:20:49;3.50;;;2.60;;
1174;SDS011;576;48.418;10.074;2023-07-31T13:23:17;2.37;;;2.10;;
1174;SDS011;576;48.418;10.074;2023-07-31T13:25:45;3.80;;;2.67;;
1174;SDS011;576;48.418;10.074;2023-07-31T13:28:14;2.90;;;2.60;;
1174;SDS011;576;48.418;10.074;2023-07-31T13:30:42;2.70;;;2.50;;
1174;SDS011;576;48.418;10.074;2023-07-31T13:33:10;4.77;;;2.30;;
1174;SDS011;576;48.418;10.074;2023-07-31T13:35:59;2.27;;;2.07;;
1174;SDS011;576;48.418;10.074;2023-07-31T13:38:27;2.13;;;1.90;;
1174;SDS011;576;48.418;10.074;2023-07-31T13:40:56;1.97;;;1.77;;
1174;SDS011;576;48.418;10.074;2023-07-31T13:43:25;2.80;;;2.47;;
1174;SDS011;576;48.418;10.074;2023-07-31T13:45:52;4.37;;;3.13;;
1174;SDS011;576;48.418;10.074;2023-07-31T13:48:20;3.97;;;2.13;;
1174;SDS011;576;48.418;10.074;2023-07-31T13:50:48;3.13;;;2.40;;
1174;SDS011;576;48.418;10.074;2023-07-31T13:53:18;3.03;;;2.53;;
1174;SDS011;576;48.418;10.074;2023-07-31T13:55:46;3.23;;;2.93;;
1174;SDS011;576;48.418;10.074;2023-07-31T13:58:15;3.70;;;2.43;;
1174;SDS011;576;48.418;10.074;2023-07-31T14:00:45;2.50;;;2.30;;
1174;SDS011;576;48.418;10.074;2023-07-31T14:03:13;3.20;;;2.13;;
1174;SDS011;576;48.418;10.074;2023-07-31T14:05:41;2.80;;;2.57;;
1174;SDS011;576;48.418;10.074;2023-07-31T14:08:09;3.90;;;2.93;;
1174;SDS011;576;48.418;10.074;2023-07-31T14:10:39;3.33;;;2.77;;
1174;SDS011;576;48.418;10.074;2023-07-31T14:13:07;3.00;;;2.50;;
1174;SDS011;576;48.418;10.074;2023-07-31T14:15:35;3.40;;;2.67;;
1174;SDS011;576;48.418;10.074;2023-07-31T14:18:04;5.13;;;2.40;;
1174;SDS011;576;48.418;10.074;2023-07-31T14:20:32;4.43;;;2.37;;
1174;SDS011;576;48.418;10.074;2023-07-31T14:23:01;2.77;;;2.50;;
1174;SDS011;576;48.418;10.074;2023-07-31T14:25:30;2.43;;;2.23;;
1174;SDS011;576;48.418;10.074;2023-07-31T14:27:59;2.60;;;2.37;;
1174;SDS011;576;48.418;10.074;2023-07-31T14:30:28;2.50;;;2.30;;
1174;SDS011;576;48.418;10.074;2023-07-31T14:32:56;3.90;;;2.67;;
1174;SDS011;576;48.418;10.074;2023-07-31T14:35:26;3.03;;;2.40;;
1174;SDS011;576;48.418;10.074;2023-07-31T14:37:54;2.50;;;2.30;;
1174;SDS011;576;48.418;10.074;2023-07-31T14:40:22;5.80;;;3.70;;
1174;SDS011;576;48.418;10.074;2023-07-31T14:42:50;3.50;;;2.77;;
1174;SDS011;576;48.418;10.074;2023-07-31T14:45:20;4.90;;;2.50;;
1174;SDS011;576;48.418;10.074;2023-07-31T14:47:48;2.53;;;2.33;;
1174;SDS011;576;48.418;10.074;2023-07-31T14:50:16;2.77;;;2.57;;
1174;SDS011;576;48.418;10.074;2023-07-31T14:52:46;3.80;;;2.80;;
1174;SDS011;576;48.418;10.074;2023-07-31T14:55:15;2.97;;;2.67;;
1174;SDS011;576;48.418;10.074;2023-07-31T14:57:43;2.93;;;2.73;;
1174;SDS011;576;48.418;10.074;2023-07-31T15:00:12;2.93;;;2.73;;
1174;SDS011;576;48.418;10.074;2023-07-31T15:02:42;2.63;;;2.43;;
1174;SDS011;576;48.418;10.074;2023-07-31T15:05:10;2.90;;;2.60;;
1174;SDS011;576;48.418;10.074;2023-07-31T15:07:38;4.30;;;3.07;;
1174;SDS011;576;48.418;10.074;2023-07-31T15:10:07;2.63;;;2.43;;
1174;SDS011;576;48.418;10.074;2023-07-31T15:12:35;3.23;;;2.27;;
1174;SDS011;576;48.418;10.074;2023-07-31T15:15:05;5.53;;;3.30;;
1174;SDS011;576;48.418;10.074;2023-07-31T15:17:34;3.73;;;2.83;;
1174;SDS011;576;48.418;10.074;2023-07-31T15:20:05;2.93;;;2.07;;
1174;SDS011;576;48.418;10.074;2023-07-31T15:22:34;3.30;;;2.57;;
1174;SDS011;576;48.418;10.074;2023-07-31T15:25:02;3.30;;;2.53;;
1174;SDS011;576;48.418;10.074;2023-07-31T15:27:30;4.23;;;3.83;;
1174;SDS011;576;48.418;10.074;2023-07-31T15:29:58;3.70;;;2.43;;
1174;SDS011;576;48.418;10.074;2023-07-31T15:32:26;3.50;;;2.50;;
1174;SDS011;576;48.418;10.074;2023-07-31T15:34:55;4.63;;;3.30;;
1174;SDS011;576;48.418;10.074;2023-07-31T15:37:24;3.20;;;2.90;;